sensor_id;sensor_type;location;lat;lon;timestamp;P1;durP1;ratioP1;P2;durP2;ratioP2
7377;SDS011;3730;50.856;12.776;2022-11-20T00:01:03;33.40;;;20.03;;
7377;SDS011;3730;50.856;12.776;2022-11-20T00:03:29;35.33;;;20.23;;
7377;SDS011;3730;50.856;12.776;2022-11-20T00:05:59;35.00;;;20.43;;
7377;SDS011;3730;50.856;12.776;2022-11-20T00:08:25;31.87;;;19.07;;
7377;SDS011;3730;50.856;12.776;2022-11-20T00:10:51;39.23;;;20.80;;
7377;SDS011;3730;50.856;12.776;2022-11-20T00:13:17;30.87;;;19.53;;
7377;SDS011;3730;50.856;12.776;2022-11-20T00:15:43;36.17;;;22.27;;
7377;SDS011;3730;50.856;12.776;2022-11-20T00:18:09;34.67;;;20.67;;
7377;SDS011;3730;50.856;12.776;2022-11-20T00:20:35;34.60;;;21.47;;
7377;SDS011;3730;50.856;12.776;2022-11-20T00:23:01;38.07;;;21.37;;
7377;SDS011;3730;50.856;12.776;2022-11-20T00:25:27;30.17;;;19.03;;
7377;SDS011;3730;50.856;12.776;2022-11-20T00:27:53;33.63;;;20.27;;
7377;SDS011;3730;50.856;12.776;2022-11-20T00:30:19;33.27;;;21.23;;
7377;SDS011;3730;50.856;12.776;2022-11-20T00:32:45;36.10;;;20.83;;
7377;SDS011;3730;50.856;12.776;2022-11-20T00:35:11;33.80;;;20.80;;
7377;SDS011;3730;50.856;12.776;2022-11-20T00:37:37;31.67;;;19.97;;
7377;SDS011;3730;50.856;12.776;2022-11-20T00:40:03;33.63;;;20.07;;
7377;SDS011;3730;50.856;12.776;2022-11-20T00:42:29;36.87;;;22.00;;
7377;SDS011;3730;50.856;12.776;2022-11-20T00:44:57;34.40;;;21.93;;
7377;SDS011;3730;50.856;12.776;2022-11-20T00:47:23;36.87;;;23.43;;
7377;SDS011;3730;50.856;12.776;2022-11-20T00:49:49;37.47;;;22.40;;
7377;SDS011;3730;50.856;12.776;2022-11-20T00:52:15;35.83;;;21.97;;
7377;SDS011;3730;50.856;12.776;2022-11-20T00:54:41;32.90;;;21.10;;
7377;SDS011;3730;50.856;12.776;2022-11-20T00:57:07;39.80;;;23.90;;
7377;SDS011;3730;50.856;12.776;2022-11-20T00:59:33;39.57;;;22.67;;
7377;SDS011;3730;50.856;12.776;2022-11-20T01:01:59;35.40;;;21.70;;
7377;SDS011;3730;50.856;12.776;2022-11-20T01:04:25;36.60;;;20.70;;
7377;SDS011;3730;50.856;12.776;2022-11-20T01:06:51;31.87;;;19.20;;
7377;SDS011;3730;50.856;12.776;2022-11-20T01:09:17;31.43;;;18.27;;
7377;SDS011;3730;50.856;12.776;2022-11-20T01:11:43;30.47;;;18.00;;
7377;SDS011;3730;50.856;12.776;2022-11-20T01:14:13;30.70;;;17.80;;
7377;SDS011;3730;50.856;12.776;2022-11-20T01:16:41;30.33;;;17.87;;
7377;SDS011;3730;50.856;12.776;2022-11-20T01:19:09;32.00;;;18.17;;
7377;SDS011;3730;50.856;12.776;2022-11-20T01:21:36;32.30;;;18.67;;
7377;SDS011;3730;50.856;12.776;2022-11-20T01:24:03;30.43;;;17.23;;
7377;SDS011;3730;50.856;12.776;2022-11-20T01:26:30;29.77;;;17.87;;
7377;SDS011;3730;50.856;12.776;2022-11-20T01:28:57;30.53;;;17.77;;
7377;SDS011;3730;50.856;12.776;2022-11-20T01:31:24;28.57;;;16.77;;
7377;SDS011;3730;50.856;12.776;2022-11-20T01:33:51;30.73;;;18.23;;
7377;SDS011;3730;50.856;12.776;2022-11-20T01:36:18;28.20;;;16.90;;
7377;SDS011;3730;50.856;12.776;2022-11-20T01:38:45;32.10;;;17.30;;
7377;SDS011;3730;50.856;12.776;2022-11-20T01:41:11;28.53;;;16.90;;
7377;SDS011;3730;50.856;12.776;2022-11-20T01:44:01;29.33;;;17.50;;
7377;SDS011;3730;50.856;12.776;2022-11-20T01:46:27;31.10;;;17.37;;
7377;SDS011;3730;50.856;12.776;2022-11-20T01:51:27;31.73;;;17.83;;
7377;SDS011;3730;50.856;12.776;2022-11-20T01:53:55;32.03;;;18.30;;
7377;SDS011;3730;50.856;12.776;2022-11-20T01:56:23;30.63;;;17.87;;
7377;SDS011;3730;50.856;12.776;2022-11-20T01:58:51;30.70;;;17.50;;
7377;SDS011;3730;50.856;12.776;2022-11-20T02:01:18;28.47;;;15.60;;
7377;SDS011;3730;50.856;12.776;2022-11-20T02:03:44;28.23;;;16.83;;
7377;SDS011;3730;50.856;12.776;2022-11-20T02:06:12;28.53;;;17.57;;
7377;SDS011;3730;50.856;12.776;2022-11-20T02:08:39;29.43;;;17.33;;
7377;SDS011;3730;50.856;12.776;2022-11-20T02:11:05;30.73;;;18.90;;
7377;SDS011;3730;50.856;12.776;2022-11-20T02:13:31;30.43;;;17.57;;
7377;SDS011;3730;50.856;12.776;2022-11-20T02:19:02;31.23;;;18.00;;
7377;SDS011;3730;50.856;12.776;2022-11-20T02:21:32;31.50;;;17.70;;
7377;SDS011;3730;50.856;12.776;2022-11-20T02:24:09;28.50;;;16.60;;
7377;SDS011;3730;50.856;12.776;2022-11-20T02:26:38;28.70;;;15.97;;
7377;SDS011;3730;50.856;12.776;2022-11-20T02:29:05;29.30;;;17.53;;
7377;SDS011;3730;50.856;12.776;2022-11-20T02:31:36;30.33;;;17.70;;
7377;SDS011;3730;50.856;12.776;2022-11-20T02:34:03;27.07;;;16.60;;
7377;SDS011;3730;50.856;12.776;2022-11-20T02:36:29;27.93;;;16.40;;
7377;SDS011;3730;50.856;12.776;2022-11-20T02:38:55;29.00;;;17.60;;
7377;SDS011;3730;50.856;12.776;2022-11-20T02:41:21;26.47;;;16.03;;
7377;SDS011;3730;50.856;12.776;2022-11-20T02:43:47;30.27;;;18.23;;
7377;SDS011;3730;50.856;12.776;2022-11-20T02:46:13;31.13;;;17.73;;
7377;SDS011;3730;50.856;12.776;2022-11-20T02:48:39;26.00;;;16.50;;
7377;SDS011;3730;50.856;12.776;2022-11-20T02:51:05;27.77;;;17.00;;
7377;SDS011;3730;50.856;12.776;2022-11-20T02:53:31;25.63;;;16.50;;
7377;SDS011;3730;50.856;12.776;2022-11-20T02:55:57;27.47;;;15.80;;
7377;SDS011;3730;50.856;12.776;2022-11-20T02:58:23;28.50;;;16.60;;
7377;SDS011;3730;50.856;12.776;2022-11-20T03:00:49;28.07;;;16.77;;
7377;SDS011;3730;50.856;12.776;2022-11-20T03:03:15;28.07;;;16.50;;
7377;SDS011;3730;50.856;12.776;2022-11-20T03:05:41;25.43;;;15.67;;
7377;SDS011;3730;50.856;12.776;2022-11-20T03:08:07;25.50;;;15.27;;
7377;SDS011;3730;50.856;12.776;2022-11-20T03:10:33;26.50;;;17.03;;
7377;SDS011;3730;50.856;12.776;2022-11-20T03:12:59;26.70;;;15.87;;
7377;SDS011;3730;50.856;12.776;2022-11-20T03:15:25;25.77;;;15.13;;
7377;SDS011;3730;50.856;12.776;2022-11-20T03:17:54;27.03;;;16.53;;
7377;SDS011;3730;50.856;12.776;2022-11-20T03:20:21;27.53;;;16.80;;
7377;SDS011;3730;50.856;12.776;2022-11-20T03:22:47;26.97;;;16.33;;
7377;SDS011;3730;50.856;12.776;2022-11-20T03:25:13;26.73;;;16.20;;
7377;SDS011;3730;50.856;12.776;2022-11-20T03:27:39;25.47;;;14.83;;
7377;SDS011;3730;50.856;12.776;2022-11-20T03:30:05;27.53;;;16.10;;
7377;SDS011;3730;50.856;12.776;2022-11-20T03:32:31;24.87;;;16.00;;
7377;SDS011;3730;50.856;12.776;2022-11-20T03:34:57;28.03;;;16.80;;
7377;SDS011;3730;50.856;12.776;2022-11-20T03:37:24;28.20;;;16.50;;
7377;SDS011;3730;50.856;12.776;2022-11-20T03:39:50;28.40;;;17.20;;
7377;SDS011;3730;50.856;12.776;2022-11-20T03:42:16;29.13;;;16.30;;
7377;SDS011;3730;50.856;12.776;2022-11-20T03:45:00;28.77;;;17.17;;
7377;SDS011;3730;50.856;12.776;2022-11-20T03:47:26;27.40;;;16.23;;
7377;SDS011;3730;50.856;12.776;2022-11-20T03:49:52;28.07;;;17.50;;
7377;SDS011;3730;50.856;12.776;2022-11-20T03:52:18;30.30;;;17.93;;
7377;SDS011;3730;50.856;12.776;2022-11-20T03:54:44;25.50;;;16.33;;
7377;SDS011;3730;50.856;12.776;2022-11-20T03:57:10;29.17;;;17.27;;
7377;SDS011;3730;50.856;12.776;2022-11-20T03:59:36;25.40;;;15.70;;
7377;SDS011;3730;50.856;12.776;2022-11-20T04:02:02;23.30;;;14.30;;
7377;SDS011;3730;50.856;12.776;2022-11-20T04:04:28;27.00;;;15.97;;
7377;SDS011;3730;50.856;12.776;2022-11-20T04:06:54;26.00;;;14.77;;
7377;SDS011;3730;50.856;12.776;2022-11-20T04:09:20;24.43;;;14.53;;
7377;SDS011;3730;50.856;12.776;2022-11-20T04:11:46;26.37;;;15.20;;
7377;SDS011;3730;50.856;12.776;2022-11-20T04:14:13;26.37;;;15.43;;
7377;SDS011;3730;50.856;12.776;2022-11-20T04:16:39;24.50;;;14.47;;
7377;SDS011;3730;50.856;12.776;2022-11-20T04:19:08;24.97;;;14.13;;
7377;SDS011;3730;50.856;12.776;2022-11-20T04:21:35;24.77;;;14.93;;
7377;SDS011;3730;50.856;12.776;2022-11-20T04:24:01;21.93;;;13.33;;
7377;SDS011;3730;50.856;12.776;2022-11-20T04:26:27;20.00;;;13.43;;
7377;SDS011;3730;50.856;12.776;2022-11-20T04:28:54;19.60;;;11.77;;
7377;SDS011;3730;50.856;12.776;2022-11-20T04:31:24;16.60;;;10.83;;
7377;SDS011;3730;50.856;12.776;2022-11-20T04:33:51;17.27;;;11.37;;
7377;SDS011;3730;50.856;12.776;2022-11-20T04:36:18;20.80;;;12.93;;
7377;SDS011;3730;50.856;12.776;2022-11-20T04:38:44;18.40;;;12.77;;
7377;SDS011;3730;50.856;12.776;2022-11-20T04:41:17;17.70;;;13.03;;
7377;SDS011;3730;50.856;12.776;2022-11-20T04:43:47;18.07;;;11.90;;
7377;SDS011;3730;50.856;12.776;2022-11-20T04:46:14;18.23;;;12.67;;
7377;SDS011;3730;50.856;12.776;2022-11-20T04:48:40;19.77;;;12.40;;
7377;SDS011;3730;50.856;12.776;2022-11-20T04:51:06;18.87;;;12.87;;
7377;SDS011;3730;50.856;12.776;2022-11-20T04:53:32;18.13;;;12.27;;
7377;SDS011;3730;50.856;12.776;2022-11-20T04:55:59;18.90;;;13.17;;
7377;SDS011;3730;50.856;12.776;2022-11-20T04:58:25;19.43;;;13.30;;
7377;SDS011;3730;50.856;12.776;2022-11-20T05:00:51;17.70;;;12.20;;
7377;SDS011;3730;50.856;12.776;2022-11-20T05:03:17;16.67;;;12.40;;
7377;SDS011;3730;50.856;12.776;2022-11-20T05:05:43;18.43;;;12.13;;
7377;SDS011;3730;50.856;12.776;2022-11-20T05:08:09;18.37;;;11.97;;
7377;SDS011;3730;50.856;12.776;2022-11-20T05:10:35;17.13;;;11.50;;
7377;SDS011;3730;50.856;12.776;2022-11-20T05:13:01;18.63;;;10.50;;
7377;SDS011;3730;50.856;12.776;2022-11-20T05:15:27;12.30;;;8.70;;
7377;SDS011;3730;50.856;12.776;2022-11-20T05:17:53;10.90;;;7.50;;
7377;SDS011;3730;50.856;12.776;2022-11-20T05:20:19;13.73;;;8.10;;
7377;SDS011;3730;50.856;12.776;2022-11-20T05:22:45;12.57;;;7.37;;
7377;SDS011;3730;50.856;12.776;2022-11-20T05:25:11;10.90;;;7.17;;
7377;SDS011;3730;50.856;12.776;2022-11-20T05:27:37;11.03;;;6.63;;
7377;SDS011;3730;50.856;12.776;2022-11-20T05:30:04;9.53;;;6.53;;
7377;SDS011;3730;50.856;12.776;2022-11-20T05:32:30;8.67;;;6.50;;
7377;SDS011;3730;50.856;12.776;2022-11-20T05:34:59;9.90;;;6.47;;
7377;SDS011;3730;50.856;12.776;2022-11-20T05:37:25;10.87;;;7.33;;
7377;SDS011;3730;50.856;12.776;2022-11-20T05:39:51;10.07;;;6.47;;
7377;SDS011;3730;50.856;12.776;2022-11-20T05:42:17;10.47;;;7.03;;
7377;SDS011;3730;50.856;12.776;2022-11-20T05:44:58;12.17;;;7.27;;
7377;SDS011;3730;50.856;12.776;2022-11-20T05:47:25;9.67;;;6.17;;
7377;SDS011;3730;50.856;12.776;2022-11-20T05:49:51;9.53;;;6.57;;
7377;SDS011;3730;50.856;12.776;2022-11-20T05:52:17;8.00;;;5.23;;
7377;SDS011;3730;50.856;12.776;2022-11-20T05:54:43;9.77;;;5.53;;
7377;SDS011;3730;50.856;12.776;2022-11-20T05:57:09;8.40;;;5.60;;
7377;SDS011;3730;50.856;12.776;2022-11-20T05:59:35;9.27;;;5.30;;
7377;SDS011;3730;50.856;12.776;2022-11-20T06:02:01;8.83;;;5.70;;
7377;SDS011;3730;50.856;12.776;2022-11-20T06:04:27;9.50;;;5.50;;
7377;SDS011;3730;50.856;12.776;2022-11-20T06:06:53;7.30;;;5.23;;
7377;SDS011;3730;50.856;12.776;2022-11-20T06:09:19;9.10;;;5.67;;
7377;SDS011;3730;50.856;12.776;2022-11-20T06:11:45;7.30;;;4.97;;
7377;SDS011;3730;50.856;12.776;2022-11-20T06:14:11;8.20;;;5.43;;
7377;SDS011;3730;50.856;12.776;2022-11-20T06:16:37;8.23;;;5.30;;
7377;SDS011;3730;50.856;12.776;2022-11-20T06:19:03;7.00;;;5.30;;
7377;SDS011;3730;50.856;12.776;2022-11-20T06:21:29;8.00;;;5.30;;
7377;SDS011;3730;50.856;12.776;2022-11-20T06:23:55;9.23;;;6.00;;
7377;SDS011;3730;50.856;12.776;2022-11-20T06:26:22;9.80;;;6.47;;
7377;SDS011;3730;50.856;12.776;2022-11-20T06:28:49;9.23;;;6.20;;
7377;SDS011;3730;50.856;12.776;2022-11-20T06:31:17;8.17;;;6.37;;
7377;SDS011;3730;50.856;12.776;2022-11-20T06:33:43;9.67;;;6.57;;
7377;SDS011;3730;50.856;12.776;2022-11-20T06:36:10;9.77;;;7.13;;
7377;SDS011;3730;50.856;12.776;2022-11-20T06:38:37;10.87;;;6.97;;
7377;SDS011;3730;50.856;12.776;2022-11-20T06:41:04;9.90;;;7.30;;
7377;SDS011;3730;50.856;12.776;2022-11-20T06:43:30;11.37;;;7.50;;
7377;SDS011;3730;50.856;12.776;2022-11-20T06:45:56;9.27;;;7.30;;
7377;SDS011;3730;50.856;12.776;2022-11-20T06:48:23;13.13;;;7.77;;
7377;SDS011;3730;50.856;12.776;2022-11-20T06:50:49;10.50;;;6.87;;
7377;SDS011;3730;50.856;12.776;2022-11-20T06:53:15;11.37;;;6.90;;
7377;SDS011;3730;50.856;12.776;2022-11-20T06:55:45;9.80;;;6.80;;
7377;SDS011;3730;50.856;12.776;2022-11-20T06:58:15;8.60;;;5.97;;
7377;SDS011;3730;50.856;12.776;2022-11-20T07:00:41;9.27;;;6.17;;
7377;SDS011;3730;50.856;12.776;2022-11-20T07:03:08;9.13;;;6.53;;
7377;SDS011;3730;50.856;12.776;2022-11-20T07:05:35;11.17;;;6.93;;
7377;SDS011;3730;50.856;12.776;2022-11-20T07:08:01;8.93;;;6.77;;
7377;SDS011;3730;50.856;12.776;2022-11-20T07:10:27;11.10;;;7.17;;
7377;SDS011;3730;50.856;12.776;2022-11-20T07:12:53;9.60;;;6.67;;
7377;SDS011;3730;50.856;12.776;2022-11-20T07:15:20;9.03;;;6.60;;
7377;SDS011;3730;50.856;12.776;2022-11-20T07:17:46;11.10;;;6.93;;
7377;SDS011;3730;50.856;12.776;2022-11-20T07:20:13;9.83;;;6.80;;
7377;SDS011;3730;50.856;12.776;2022-11-20T07:22:39;10.20;;;7.17;;
7377;SDS011;3730;50.856;12.776;2022-11-20T07:25:05;8.67;;;6.40;;
7377;SDS011;3730;50.856;12.776;2022-11-20T07:27:31;10.03;;;6.10;;
7377;SDS011;3730;50.856;12.776;2022-11-20T07:29:57;9.20;;;5.63;;
7377;SDS011;3730;50.856;12.776;2022-11-20T07:32:23;10.23;;;6.00;;
7377;SDS011;3730;50.856;12.776;2022-11-20T07:34:49;9.60;;;6.33;;
7377;SDS011;3730;50.856;12.776;2022-11-20T07:37:15;10.40;;;6.63;;
7377;SDS011;3730;50.856;12.776;2022-11-20T07:39:42;13.53;;;7.70;;
7377;SDS011;3730;50.856;12.776;2022-11-20T07:42:08;13.10;;;8.30;;
7377;SDS011;3730;50.856;12.776;2022-11-20T07:44:34;12.83;;;7.90;;
7377;SDS011;3730;50.856;12.776;2022-11-20T07:47:01;13.57;;;8.27;;
7377;SDS011;3730;50.856;12.776;2022-11-20T07:49:27;12.70;;;8.33;;
7377;SDS011;3730;50.856;12.776;2022-11-20T07:51:53;14.50;;;8.93;;
7377;SDS011;3730;50.856;12.776;2022-11-20T07:54:19;15.00;;;8.07;;
7377;SDS011;3730;50.856;12.776;2022-11-20T07:56:46;13.50;;;8.37;;
7377;SDS011;3730;50.856;12.776;2022-11-20T07:59:12;12.43;;;8.10;;
7377;SDS011;3730;50.856;12.776;2022-11-20T08:01:38;12.57;;;7.53;;
7377;SDS011;3730;50.856;12.776;2022-11-20T08:04:04;14.17;;;8.43;;
7377;SDS011;3730;50.856;12.776;2022-11-20T08:06:30;13.33;;;8.70;;
7377;SDS011;3730;50.856;12.776;2022-11-20T08:08:56;13.10;;;8.13;;
7377;SDS011;3730;50.856;12.776;2022-11-20T08:11:22;13.93;;;7.97;;
7377;SDS011;3730;50.856;12.776;2022-11-20T08:14:07;13.47;;;8.50;;
7377;SDS011;3730;50.856;12.776;2022-11-20T08:16:40;13.97;;;8.70;;
7377;SDS011;3730;50.856;12.776;2022-11-20T08:19:06;14.60;;;9.07;;
7377;SDS011;3730;50.856;12.776;2022-11-20T08:21:33;13.67;;;9.03;;
7377;SDS011;3730;50.856;12.776;2022-11-20T08:23:59;19.90;;;10.10;;
7377;SDS011;3730;50.856;12.776;2022-11-20T08:26:25;16.13;;;9.30;;
7377;SDS011;3730;50.856;12.776;2022-11-20T08:28:54;15.90;;;9.27;;
7377;SDS011;3730;50.856;12.776;2022-11-20T08:31:21;15.70;;;9.57;;
7377;SDS011;3730;50.856;12.776;2022-11-20T08:33:47;15.43;;;8.83;;
7377;SDS011;3730;50.856;12.776;2022-11-20T08:36:13;16.70;;;9.53;;
7377;SDS011;3730;50.856;12.776;2022-11-20T08:38:39;17.97;;;9.70;;
7377;SDS011;3730;50.856;12.776;2022-11-20T08:41:05;15.57;;;9.00;;
7377;SDS011;3730;50.856;12.776;2022-11-20T08:43:55;14.83;;;8.67;;
7377;SDS011;3730;50.856;12.776;2022-11-20T08:46:21;13.70;;;8.50;;
7377;SDS011;3730;50.856;12.776;2022-11-20T08:48:48;15.40;;;9.00;;
7377;SDS011;3730;50.856;12.776;2022-11-20T08:51:14;16.90;;;9.77;;
7377;SDS011;3730;50.856;12.776;2022-11-20T08:53:40;15.53;;;9.13;;
7377;SDS011;3730;50.856;12.776;2022-11-20T08:56:06;15.23;;;9.30;;
7377;SDS011;3730;50.856;12.776;2022-11-20T08:58:32;14.70;;;8.73;;
7377;SDS011;3730;50.856;12.776;2022-11-20T09:00:58;13.23;;;8.60;;
7377;SDS011;3730;50.856;12.776;2022-11-20T09:03:24;15.30;;;9.60;;
7377;SDS011;3730;50.856;12.776;2022-11-20T09:05:56;13.40;;;8.70;;
7377;SDS011;3730;50.856;12.776;2022-11-20T09:08:22;14.70;;;9.83;;
7377;SDS011;3730;50.856;12.776;2022-11-20T09:10:51;13.57;;;8.47;;
7377;SDS011;3730;50.856;12.776;2022-11-20T09:13:17;14.27;;;9.10;;
7377;SDS011;3730;50.856;12.776;2022-11-20T09:15:42;15.70;;;9.90;;
7377;SDS011;3730;50.856;12.776;2022-11-20T09:18:08;14.93;;;9.60;;
7377;SDS011;3730;50.856;12.776;2022-11-20T09:20:34;14.10;;;8.57;;
7377;SDS011;3730;50.856;12.776;2022-11-20T09:23:00;16.00;;;9.50;;
7377;SDS011;3730;50.856;12.776;2022-11-20T09:25:26;16.10;;;8.93;;
7377;SDS011;3730;50.856;12.776;2022-11-20T09:27:56;15.77;;;9.63;;
7377;SDS011;3730;50.856;12.776;2022-11-20T09:30:22;17.03;;;10.40;;
7377;SDS011;3730;50.856;12.776;2022-11-20T09:32:48;15.53;;;9.57;;
7377;SDS011;3730;50.856;12.776;2022-11-20T09:35:14;16.30;;;10.50;;
7377;SDS011;3730;50.856;12.776;2022-11-20T09:37:40;18.87;;;11.50;;
7377;SDS011;3730;50.856;12.776;2022-11-20T09:40:06;16.73;;;10.97;;
7377;SDS011;3730;50.856;12.776;2022-11-20T09:42:51;16.93;;;10.53;;
7377;SDS011;3730;50.856;12.776;2022-11-20T09:53:16;15.67;;;10.53;;
7377;SDS011;3730;50.856;12.776;2022-11-20T09:55:46;20.80;;;11.90;;
7377;SDS011;3730;50.856;12.776;2022-11-20T09:58:59;19.17;;;11.67;;
7377;SDS011;3730;50.856;12.776;2022-11-20T10:01:03;21.57;;;12.63;;
7377;SDS011;3730;50.856;12.776;2022-11-20T10:06:16;19.90;;;12.33;;
7377;SDS011;3730;50.856;12.776;2022-11-20T10:09:01;21.20;;;12.87;;
7377;SDS011;3730;50.856;12.776;2022-11-20T10:14:29;19.30;;;12.20;;
7377;SDS011;3730;50.856;12.776;2022-11-20T10:17:02;17.73;;;11.20;;
7377;SDS011;3730;50.856;12.776;2022-11-20T10:19:40;19.77;;;11.60;;
7377;SDS011;3730;50.856;12.776;2022-11-20T10:30:00;20.10;;;12.43;;
7377;SDS011;3730;50.856;12.776;2022-11-20T10:32:29;22.07;;;12.77;;
7377;SDS011;3730;50.856;12.776;2022-11-20T10:35:00;20.43;;;12.20;;
7377;SDS011;3730;50.856;12.776;2022-11-20T10:37:27;19.87;;;12.10;;
7377;SDS011;3730;50.856;12.776;2022-11-20T10:42:43;19.93;;;13.03;;
7377;SDS011;3730;50.856;12.776;2022-11-20T10:47:45;21.03;;;12.90;;
7377;SDS011;3730;50.856;12.776;2022-11-20T10:50:11;22.67;;;14.00;;
7377;SDS011;3730;50.856;12.776;2022-11-20T10:55:17;20.47;;;12.13;;
7377;SDS011;3730;50.856;12.776;2022-11-20T11:00:17;19.07;;;12.20;;
7377;SDS011;3730;50.856;12.776;2022-11-20T11:02:45;20.93;;;12.67;;
7377;SDS011;3730;50.856;12.776;2022-11-20T11:07:57;17.90;;;12.13;;
7377;SDS011;3730;50.856;12.776;2022-11-20T11:10:32;19.53;;;12.23;;
7377;SDS011;3730;50.856;12.776;2022-11-20T11:13:01;20.10;;;11.83;;
7377;SDS011;3730;50.856;12.776;2022-11-20T11:17:54;18.83;;;11.40;;
7377;SDS011;3730;50.856;12.776;2022-11-20T11:20:23;19.13;;;12.43;;
7377;SDS011;3730;50.856;12.776;2022-11-20T11:22:54;18.83;;;11.90;;
7377;SDS011;3730;50.856;12.776;2022-11-20T11:25:22;20.33;;;12.50;;
7377;SDS011;3730;50.856;12.776;2022-11-20T11:27:48;20.47;;;11.83;;
7377;SDS011;3730;50.856;12.776;2022-11-20T11:30:16;22.20;;;13.37;;
7377;SDS011;3730;50.856;12.776;2022-11-20T11:32:42;21.50;;;13.70;;
7377;SDS011;3730;50.856;12.776;2022-11-20T11:35:19;18.23;;;12.03;;
7377;SDS011;3730;50.856;12.776;2022-11-20T11:37:45;18.80;;;12.67;;
7377;SDS011;3730;50.856;12.776;2022-11-20T11:40:12;19.50;;;12.57;;
7377;SDS011;3730;50.856;12.776;2022-11-20T11:42:47;19.17;;;12.33;;
7377;SDS011;3730;50.856;12.776;2022-11-20T11:45:15;21.93;;;13.07;;
7377;SDS011;3730;50.856;12.776;2022-11-20T11:47:45;23.67;;;14.30;;
7377;SDS011;3730;50.856;12.776;2022-11-20T11:55:17;19.97;;;12.77;;
7377;SDS011;3730;50.856;12.776;2022-11-20T11:57:54;18.20;;;11.87;;
7377;SDS011;3730;50.856;12.776;2022-11-20T12:00:21;21.13;;;12.07;;
7377;SDS011;3730;50.856;12.776;2022-11-20T12:03:03;21.10;;;13.47;;
7377;SDS011;3730;50.856;12.776;2022-11-20T12:05:35;20.63;;;12.83;;
7377;SDS011;3730;50.856;12.776;2022-11-20T12:08:03;20.07;;;12.57;;
7377;SDS011;3730;50.856;12.776;2022-11-20T12:13:15;24.20;;;13.80;;
7377;SDS011;3730;50.856;12.776;2022-11-20T12:15:45;19.83;;;12.70;;
7377;SDS011;3730;50.856;12.776;2022-11-20T12:18:18;18.03;;;12.07;;
7377;SDS011;3730;50.856;12.776;2022-11-20T12:20:50;20.37;;;11.77;;
7377;SDS011;3730;50.856;12.776;2022-11-20T12:23:40;20.67;;;12.43;;
7377;SDS011;3730;50.856;12.776;2022-11-20T12:26:10;18.80;;;11.43;;
7377;SDS011;3730;50.856;12.776;2022-11-20T12:36:53;17.30;;;11.00;;
7377;SDS011;3730;50.856;12.776;2022-11-20T12:42:23;17.57;;;11.17;;
7377;SDS011;3730;50.856;12.776;2022-11-20T12:48:38;17.97;;;11.07;;
7377;SDS011;3730;50.856;12.776;2022-11-20T13:04:07;23.23;;;14.97;;
7377;SDS011;3730;50.856;12.776;2022-11-20T13:06:34;21.73;;;13.20;;
7377;SDS011;3730;50.856;12.776;2022-11-20T13:09:00;23.47;;;14.83;;
7377;SDS011;3730;50.856;12.776;2022-11-20T13:14:11;18.87;;;13.27;;
7377;SDS011;3730;50.856;12.776;2022-11-20T13:19:09;25.93;;;15.50;;
7377;SDS011;3730;50.856;12.776;2022-11-20T13:21:40;27.73;;;16.10;;
7377;SDS011;3730;50.856;12.776;2022-11-20T13:24:19;24.93;;;15.77;;
7377;SDS011;3730;50.856;12.776;2022-11-20T13:29:36;24.87;;;15.60;;
7377;SDS011;3730;50.856;12.776;2022-11-20T13:32:03;23.83;;;15.13;;
7377;SDS011;3730;50.856;12.776;2022-11-20T13:34:30;23.83;;;14.13;;
7377;SDS011;3730;50.856;12.776;2022-11-20T13:36:57;25.47;;;15.90;;
7377;SDS011;3730;50.856;12.776;2022-11-20T13:39:29;27.27;;;16.60;;
7377;SDS011;3730;50.856;12.776;2022-11-20T13:41:56;23.07;;;14.97;;
7377;SDS011;3730;50.856;12.776;2022-11-20T13:46:54;25.27;;;15.57;;
7377;SDS011;3730;50.856;12.776;2022-11-20T13:49:25;26.70;;;16.20;;
7377;SDS011;3730;50.856;12.776;2022-11-20T13:51:53;25.13;;;16.10;;
7377;SDS011;3730;50.856;12.776;2022-11-20T13:57:01;23.43;;;15.07;;
7377;SDS011;3730;50.856;12.776;2022-11-20T14:02:16;25.90;;;14.73;;
7377;SDS011;3730;50.856;12.776;2022-11-20T14:04:43;22.77;;;14.70;;
7377;SDS011;3730;50.856;12.776;2022-11-20T14:07:10;23.07;;;14.97;;
7377;SDS011;3730;50.856;12.776;2022-11-20T14:09:37;25.70;;;15.10;;
7377;SDS011;3730;50.856;12.776;2022-11-20T14:12:03;21.60;;;13.90;;
7377;SDS011;3730;50.856;12.776;2022-11-20T14:14:30;21.10;;;14.03;;
7377;SDS011;3730;50.856;12.776;2022-11-20T14:17:07;21.70;;;14.47;;
7377;SDS011;3730;50.856;12.776;2022-11-20T14:19:33;19.37;;;13.30;;
7377;SDS011;3730;50.856;12.776;2022-11-20T14:22:14;21.83;;;14.27;;
7377;SDS011;3730;50.856;12.776;2022-11-20T14:24:42;20.80;;;13.07;;
7377;SDS011;3730;50.856;12.776;2022-11-20T14:27:12;17.33;;;12.03;;
7377;SDS011;3730;50.856;12.776;2022-11-20T14:29:38;17.57;;;11.23;;
7377;SDS011;3730;50.856;12.776;2022-11-20T14:32:08;18.00;;;11.73;;
7377;SDS011;3730;50.856;12.776;2022-11-20T14:34:37;17.23;;;11.87;;
7377;SDS011;3730;50.856;12.776;2022-11-20T14:37:04;17.93;;;11.40;;
7377;SDS011;3730;50.856;12.776;2022-11-20T14:39:32;16.93;;;11.47;;
7377;SDS011;3730;50.856;12.776;2022-11-20T14:41:58;18.13;;;12.10;;
7377;SDS011;3730;50.856;12.776;2022-11-20T14:44:31;17.17;;;11.27;;
7377;SDS011;3730;50.856;12.776;2022-11-20T14:46:59;18.37;;;12.90;;
7377;SDS011;3730;50.856;12.776;2022-11-20T14:49:25;16.73;;;11.40;;
7377;SDS011;3730;50.856;12.776;2022-11-20T14:51:58;18.83;;;12.63;;
7377;SDS011;3730;50.856;12.776;2022-11-20T14:54:25;18.50;;;12.17;;
7377;SDS011;3730;50.856;12.776;2022-11-20T14:57:02;19.83;;;13.03;;
7377;SDS011;3730;50.856;12.776;2022-11-20T14:59:29;22.37;;;13.77;;
7377;SDS011;3730;50.856;12.776;2022-11-20T15:02:05;19.90;;;13.33;;
7377;SDS011;3730;50.856;12.776;2022-11-20T15:04:32;24.43;;;15.10;;
7377;SDS011;3730;50.856;12.776;2022-11-20T15:06:58;24.77;;;15.37;;
7377;SDS011;3730;50.856;12.776;2022-11-20T15:09:24;21.17;;;14.57;;
7377;SDS011;3730;50.856;12.776;2022-11-20T15:12:01;22.00;;;14.17;;
7377;SDS011;3730;50.856;12.776;2022-11-20T15:14:28;25.30;;;15.47;;
7377;SDS011;3730;50.856;12.776;2022-11-20T15:16:54;22.10;;;14.80;;
7377;SDS011;3730;50.856;12.776;2022-11-20T15:19:21;23.07;;;15.47;;
7377;SDS011;3730;50.856;12.776;2022-11-20T15:21:47;23.63;;;14.67;;
7377;SDS011;3730;50.856;12.776;2022-11-20T15:24:14;21.07;;;14.33;;
7377;SDS011;3730;50.856;12.776;2022-11-20T15:26:40;22.00;;;13.70;;
7377;SDS011;3730;50.856;12.776;2022-11-20T15:29:10;22.33;;;14.57;;
7377;SDS011;3730;50.856;12.776;2022-11-20T15:31:37;22.50;;;14.77;;
7377;SDS011;3730;50.856;12.776;2022-11-20T15:34:09;19.47;;;12.63;;
7377;SDS011;3730;50.856;12.776;2022-11-20T15:36:36;18.40;;;12.10;;
7377;SDS011;3730;50.856;12.776;2022-11-20T15:39:02;20.00;;;13.33;;
7377;SDS011;3730;50.856;12.776;2022-11-20T15:41:29;22.23;;;13.13;;
7377;SDS011;3730;50.856;12.776;2022-11-20T15:43:55;21.20;;;14.60;;
7377;SDS011;3730;50.856;12.776;2022-11-20T15:46:23;19.43;;;13.10;;
7377;SDS011;3730;50.856;12.776;2022-11-20T15:48:51;20.43;;;13.30;;
7377;SDS011;3730;50.856;12.776;2022-11-20T15:51:35;18.37;;;12.03;;
7377;SDS011;3730;50.856;12.776;2022-11-20T15:54:11;17.30;;;11.33;;
7377;SDS011;3730;50.856;12.776;2022-11-20T15:56:38;20.80;;;13.10;;
7377;SDS011;3730;50.856;12.776;2022-11-20T15:59:04;20.57;;;13.57;;
7377;SDS011;3730;50.856;12.776;2022-11-20T16:01:30;17.73;;;12.37;;
7377;SDS011;3730;50.856;12.776;2022-11-20T16:03:56;21.00;;;13.30;;
7377;SDS011;3730;50.856;12.776;2022-11-20T16:06:22;19.13;;;11.50;;
7377;SDS011;3730;50.856;12.776;2022-11-20T16:08:48;18.27;;;11.27;;
7377;SDS011;3730;50.856;12.776;2022-11-20T16:11:15;18.57;;;11.97;;
7377;SDS011;3730;50.856;12.776;2022-11-20T16:13:41;16.80;;;11.40;;
7377;SDS011;3730;50.856;12.776;2022-11-20T16:16:27;16.97;;;10.80;;
7377;SDS011;3730;50.856;12.776;2022-11-20T16:18:55;16.47;;;11.50;;